createdAt,value
2022-08-17T00:02:26.304Z,21.72
2022-08-17T00:04:55.434Z,21.72
2022-08-17T00:09:49.584Z,21.73
2022-08-17T00:12:42.766Z,21.69
2022-08-17T00:15:06.323Z,21.62
2022-08-17T00:17:37.980Z,21.62
2022-08-17T00:20:05.891Z,21.58
2022-08-17T00:22:36.402Z,21.52
2022-08-17T00:25:07.542Z,21.48
2022-08-17T00:27:35.020Z,21.47
2022-08-17T00:30:02.182Z,21.45
2022-08-17T00:33:13.693Z,21.45
2022-08-17T00:35:19.991Z,21.45
2022-08-17T00:37:47.065Z,21.45
2022-08-17T00:40:16.191Z,21.48
2022-08-17T00:42:44.779Z,21.44
2022-08-17T00:45:13.891Z,21.45
2022-08-17T00:47:41.928Z,21.48
2022-08-17T00:50:12.228Z,21.50
2022-08-17T00:52:50.503Z,21.49
2022-08-17T00:55:18.292Z,21.45
2022-08-17T00:57:55.044Z,21.36
2022-08-17T01:00:26.882Z,21.32
2022-08-17T01:03:06.500Z,21.34
2022-08-17T01:05:38.397Z,21.33
2022-08-17T01:08:13.294Z,21.28
2022-08-17T01:10:59.735Z,21.25
2022-08-17T01:13:41.138Z,21.26
2022-08-17T01:16:21.034Z,21.23
2022-08-17T01:18:51.300Z,21.20
2022-08-17T01:21:30.804Z,21.18
2022-08-17T01:23:59.396Z,21.16
2022-08-17T01:26:27.417Z,21.12
2022-08-17T01:28:55.809Z,21.09
2022-08-17T01:31:28.089Z,21.04
2022-08-17T01:33:55.190Z,20.98
2022-08-17T01:36:22.618Z,20.88
2022-08-17T01:38:50.069Z,20.84
2022-08-17T01:41:17.395Z,20.75
2022-08-17T01:44:06.595Z,20.70
2022-08-17T01:46:36.396Z,20.64
2022-08-17T01:49:08.389Z,20.59
2022-08-17T01:51:35.405Z,20.56
2022-08-17T01:54:06.465Z,20.53
2022-08-17T01:56:35.968Z,20.44
2022-08-17T01:59:04.026Z,20.41
2022-08-17T02:01:34.877Z,20.38
2022-08-17T02:04:02.590Z,20.35
2022-08-17T02:06:45.258Z,20.38
2022-08-17T02:09:23.370Z,20.41
2022-08-17T02:11:54.465Z,20.45
2022-08-17T02:14:23.646Z,20.46
2022-08-17T02:16:51.913Z,20.43
2022-08-17T02:19:19.084Z,20.44
2022-08-17T02:21:48.885Z,20.38
2022-08-17T02:25:01.151Z,20.31
2022-08-17T02:27:07.711Z,20.28
2022-08-17T02:29:34.644Z,20.27
2022-08-17T02:32:01.992Z,20.23
2022-08-17T02:34:30.216Z,20.20
2022-08-17T02:36:57.255Z,20.20
2022-08-17T02:39:24.431Z,20.21
2022-08-17T02:42:01.236Z,20.18
2022-08-17T02:44:35.508Z,20.21
2022-08-17T02:47:08.910Z,20.22
2022-08-17T02:49:36.409Z,20.19
2022-08-17T02:52:06.286Z,20.18
2022-08-17T02:54:39.706Z,20.16
2022-08-17T02:57:07.950Z,20.05
2022-08-17T02:59:34.869Z,19.95
2022-08-17T03:02:04.578Z,19.88
2022-08-17T03:04:35.195Z,19.81
2022-08-17T03:07:05.997Z,19.78
2022-08-17T03:09:32.953Z,19.84
2022-08-17T03:12:29.480Z,19.82
2022-08-17T03:14:56.542Z,19.80
2022-08-17T03:17:23.904Z,19.82
2022-08-17T03:19:51.340Z,19.82
2022-08-17T03:22:36.568Z,19.79
2022-08-17T03:25:05.122Z,19.75
2022-08-17T03:27:38.586Z,19.76
2022-08-17T03:30:10.838Z,19.75
2022-08-17T03:32:42.975Z,19.76
2022-08-17T03:35:11.413Z,19.81
2022-08-17T03:37:39.988Z,19.85
2022-08-17T03:40:08.908Z,19.87
2022-08-17T03:42:38.392Z,19.88
2022-08-17T03:45:15.641Z,19.92
2022-08-17T03:48:01.778Z,19.95
2022-08-17T03:50:47.489Z,19.98
2022-08-17T03:53:35.852Z,20.00
2022-08-17T03:56:23.761Z,20.02
2022-08-17T03:58:51.271Z,19.96
2022-08-17T04:01:18.451Z,19.96
2022-08-17T04:03:45.794Z,19.95
2022-08-17T04:06:12.945Z,19.98
2022-08-17T04:08:39.954Z,19.94
2022-08-17T04:11:06.810Z,19.89
2022-08-17T04:13:33.891Z,19.87
2022-08-17T04:16:02.883Z,19.91
2022-08-17T04:18:32.571Z,19.94
2022-08-17T04:21:00.892Z,19.96
2022-08-17T04:23:32.960Z,20.00
2022-08-17T04:26:01.156Z,19.96
2022-08-17T04:28:28.544Z,19.95
2022-08-17T04:30:55.656Z,19.95
2022-08-17T04:33:25.608Z,19.95
2022-08-17T04:35:55.414Z,19.90
2022-08-17T04:38:25.354Z,19.91
2022-08-17T04:41:11.692Z,19.93
2022-08-17T04:43:40.752Z,19.97
2022-08-17T04:46:11.520Z,20.00
2022-08-17T04:48:43.043Z,19.97
2022-08-17T04:51:14.980Z,19.90
2022-08-17T04:53:44.615Z,19.86
2022-08-17T04:56:16.796Z,19.91
2022-08-17T04:58:47.387Z,19.98
2022-08-17T05:01:16.169Z,20.13
2022-08-17T05:03:46.032Z,20.22
2022-08-17T05:06:13.222Z,20.30
2022-08-17T05:08:40.687Z,20.39
2022-08-17T05:11:08.304Z,20.45
2022-08-17T05:13:35.264Z,20.48
2022-08-17T05:16:03.861Z,20.42
2022-08-17T05:18:31.985Z,20.48
2022-08-17T05:20:59.448Z,20.47
2022-08-17T05:23:42.078Z,20.45
2022-08-17T05:26:26.153Z,20.37
2022-08-17T05:28:55.484Z,20.40
2022-08-17T05:31:24.865Z,20.46
2022-08-17T05:33:52.065Z,20.48
2022-08-17T05:36:41.882Z,20.50
2022-08-17T05:39:06.763Z,20.56
2022-08-17T05:41:33.755Z,20.63
2022-08-17T05:44:00.739Z,20.74
2022-08-17T05:46:41.819Z,20.86
2022-08-17T05:49:09.827Z,20.96
2022-08-17T05:52:10.017Z,21.10
2022-08-17T05:55:01.979Z,21.17
2022-08-17T05:57:36.817Z,21.34
2022-08-17T06:00:21.242Z,21.37
2022-08-17T06:03:12.213Z,21.37
2022-08-17T06:05:44.699Z,21.46
2022-08-17T06:08:23.705Z,21.50
2022-08-17T06:11:02.340Z,21.54
2022-08-17T06:13:32.031Z,21.55
2022-08-17T06:16:33.720Z,21.59
2022-08-17T06:19:06.090Z,21.60
2022-08-17T06:21:41.167Z,21.59
2022-08-17T06:24:42.919Z,21.63
2022-08-17T06:27:13.183Z,21.64
2022-08-17T06:29:51.366Z,21.62
2022-08-17T06:32:19.153Z,21.57
2022-08-17T06:34:47.199Z,21.63
2022-08-17T06:37:54.226Z,21.69
2022-08-17T06:40:55.295Z,21.75
2022-08-17T06:43:45.020Z,21.78
2022-08-17T06:46:25.535Z,21.76
2022-08-17T06:49:18.354Z,21.76
2022-08-17T06:52:06.896Z,21.78
2022-08-17T06:54:51.803Z,21.75
2022-08-17T06:57:25.016Z,21.68
2022-08-17T06:59:59.558Z,21.67
2022-08-17T07:02:55.356Z,21.67
2022-08-17T07:05:38.828Z,21.66
2022-08-17T07:08:11.777Z,21.69
2022-08-17T07:10:50.839Z,21.65
2022-08-17T07:13:39.652Z,21.60
2022-08-17T07:16:21.026Z,21.50
2022-08-17T07:18:51.213Z,21.45
2022-08-17T07:21:50.646Z,21.53
2022-08-17T07:24:29.480Z,21.64
2022-08-17T07:27:22.653Z,21.59
2022-08-17T07:29:57.166Z,21.67
2022-08-17T07:32:36.331Z,21.77
2022-08-17T07:35:17.513Z,21.90
2022-08-17T07:37:55.762Z,21.92
2022-08-17T07:40:22.736Z,21.90
2022-08-17T07:43:06.847Z,21.93
2022-08-17T07:45:54.547Z,21.98
2022-08-17T07:48:26.245Z,22.06
2022-08-17T07:50:53.606Z,22.15
2022-08-17T07:53:23.729Z,22.32
2022-08-17T07:55:52.746Z,22.40
2022-08-17T07:58:23.751Z,22.60
2022-08-17T08:01:09.971Z,22.75
2022-08-17T08:03:45.230Z,22.71
2022-08-17T08:06:24.858Z,22.86
2022-08-17T08:08:55.017Z,22.79
2022-08-17T08:11:34.521Z,22.74
2022-08-17T08:14:28.644Z,22.82
2022-08-17T08:17:09.249Z,22.83
2022-08-17T08:19:36.741Z,22.90
2022-08-17T08:22:18.371Z,22.85
2022-08-17T08:25:08.958Z,22.84
2022-08-17T08:28:05.961Z,22.83
2022-08-17T08:30:41.507Z,22.90
2022-08-17T08:33:22.682Z,23.02
2022-08-17T08:37:14.098Z,23.04
2022-08-17T08:39:17.981Z,22.89
2022-08-17T08:42:00.089Z,22.87
2022-08-17T08:45:00.350Z,22.84
2022-08-17T08:48:05.290Z,22.79
2022-08-17T08:50:49.060Z,22.70
2022-08-17T08:53:32.133Z,22.56
2022-08-17T08:56:05.342Z,22.50
2022-08-17T08:59:04.784Z,22.58
2022-08-17T09:02:12.886Z,22.58
2022-08-17T09:05:13.900Z,22.58
2022-08-17T09:08:10.769Z,22.53
2022-08-17T09:10:53.087Z,22.41
2022-08-17T09:13:25.903Z,22.48
2022-08-17T09:16:01.178Z,22.56
2022-08-17T09:19:00.389Z,22.71
2022-08-17T09:21:48.486Z,22.64
2022-08-17T09:24:21.381Z,22.56
2022-08-17T09:27:25.699Z,22.48
2022-08-17T09:29:59.104Z,22.43
2022-08-17T09:32:52.197Z,22.43
2022-08-17T09:35:36.780Z,22.50
2022-08-17T09:38:17.210Z,22.66
2022-08-17T09:40:56.685Z,22.71
2022-08-17T09:43:51.704Z,22.78
2022-08-17T09:46:34.140Z,22.84
2022-08-17T09:49:30.936Z,22.84
2022-08-17T09:52:11.530Z,22.72
2022-08-17T09:54:42.563Z,22.55
2022-08-17T09:57:51.207Z,22.52
2022-08-17T10:00:25.216Z,22.52
2022-08-17T10:02:58.265Z,22.55
2022-08-17T10:05:37.460Z,22.51
2022-08-17T10:08:28.016Z,22.46
2022-08-17T10:11:12.677Z,22.41
2022-08-17T10:13:53.470Z,22.46
2022-08-17T10:16:40.387Z,22.57
2022-08-17T10:19:18.510Z,22.85
2022-08-17T10:22:32.411Z,23.14
2022-08-17T10:25:23.873Z,23.48
2022-08-17T10:27:57.941Z,23.67
2022-08-17T10:30:28.954Z,23.87
2022-08-17T10:33:00.385Z,23.83
2022-08-17T10:35:46.088Z,23.92
2022-08-17T10:38:37.255Z,24.03
2022-08-17T10:41:27.172Z,23.89
2022-08-17T10:44:38.076Z,24.18
2022-08-17T10:47:11.698Z,24.26
2022-08-17T10:49:48.031Z,24.37
2022-08-17T10:52:26.283Z,24.78
2022-08-17T10:54:58.712Z,24.78
2022-08-17T10:57:34.644Z,24.60
2022-08-17T11:00:10.612Z,24.46
2022-08-17T11:02:52.771Z,24.43
2022-08-17T11:05:27.724Z,24.56
2022-08-17T11:08:05.559Z,24.54
2022-08-17T11:11:09.806Z,24.44
2022-08-17T11:13:59.889Z,24.55
2022-08-17T11:16:51.626Z,24.67
2022-08-17T11:20:00.894Z,24.58
2022-08-17T11:22:58.124Z,24.54
2022-08-17T11:25:36.405Z,24.38
2022-08-17T11:28:14.201Z,24.52
2022-08-17T11:30:48.575Z,24.84
2022-08-17T11:33:36.772Z,25.23
2022-08-17T11:36:40.288Z,25.28
2022-08-17T11:39:16.217Z,25.32
2022-08-17T11:41:43.091Z,24.75
2022-08-17T11:44:32.345Z,24.17
2022-08-17T11:48:15.924Z,24.32
2022-08-17T11:51:19.696Z,24.50
2022-08-17T11:53:46.761Z,24.58
2022-08-17T11:56:45.205Z,24.66
2022-08-17T11:59:44.586Z,24.99
2022-08-17T12:02:32.989Z,24.99
2022-08-17T12:05:27.536Z,25.01
2022-08-17T12:07:57.291Z,24.97
2022-08-17T12:10:32.104Z,24.99
2022-08-17T12:13:02.299Z,25.09
2022-08-17T12:15:34.914Z,25.44
2022-08-17T12:18:02.332Z,25.21
2022-08-17T12:20:32.106Z,25.08
2022-08-17T12:23:14.534Z,25.07
2022-08-17T12:25:47.724Z,25.26
2022-08-17T12:28:22.965Z,25.31
2022-08-17T12:30:52.094Z,25.18
2022-08-17T12:33:28.388Z,25.10
2022-08-17T12:36:08.597Z,25.05
2022-08-17T12:38:38.214Z,25.07
2022-08-17T12:41:26.531Z,25.01
2022-08-17T12:44:02.959Z,25.23
2022-08-17T12:46:46.780Z,24.99
2022-08-17T12:49:27.097Z,24.74
2022-08-17T12:52:02.982Z,25.24
2022-08-17T12:54:42.497Z,25.67
2022-08-17T12:57:14.457Z,25.56
2022-08-17T12:59:49.279Z,25.43
2022-08-17T13:02:40.401Z,25.40
2022-08-17T13:05:18.071Z,25.00
2022-08-17T13:07:46.668Z,24.97
2022-08-17T13:10:32.439Z,24.82
2022-08-17T13:13:05.045Z,25.03
2022-08-17T13:15:44.334Z,25.31
2022-08-17T13:18:37.083Z,25.22
2022-08-17T13:21:05.396Z,25.33
2022-08-17T13:23:33.285Z,25.66
2022-08-17T13:26:06.735Z,25.59
2022-08-17T13:28:37.531Z,25.32
2022-08-17T13:31:24.526Z,25.02
2022-08-17T13:33:51.868Z,24.85
2022-08-17T13:36:32.221Z,24.74
2022-08-17T13:39:21.081Z,24.71
2022-08-17T13:41:50.579Z,24.95
2022-08-17T13:44:37.184Z,24.74
2022-08-17T13:47:19.753Z,24.53
2022-08-17T13:49:49.255Z,24.36
2022-08-17T13:52:41.057Z,24.13
2022-08-17T13:55:19.794Z,24.14
2022-08-17T13:58:03.572Z,24.34
2022-08-17T14:00:36.589Z,24.28
2022-08-17T14:03:05.689Z,24.43
2022-08-17T14:05:33.910Z,24.25
2022-08-17T14:08:06.678Z,24.33
2022-08-17T14:10:36.612Z,24.32
2022-08-17T14:13:04.872Z,24.20
2022-08-17T14:15:55.039Z,24.23
2022-08-17T14:18:55.806Z,24.17
2022-08-17T14:21:08.572Z,24.05
2022-08-17T14:23:36.851Z,23.92
2022-08-17T14:26:04.895Z,23.80
2022-08-17T14:28:32.047Z,23.55
2022-08-17T14:31:00.908Z,23.52
2022-08-17T14:33:29.174Z,23.48
2022-08-17T14:35:57.758Z,23.37
2022-08-17T14:38:25.050Z,23.26
2022-08-17T14:40:52.546Z,23.26
2022-08-17T14:43:20.966Z,23.30
2022-08-17T14:45:47.935Z,23.23
2022-08-17T14:48:14.896Z,23.20
2022-08-17T14:50:44.095Z,23.15
2022-08-17T14:53:13.742Z,23.18
2022-08-17T14:55:40.911Z,23.23
2022-08-17T14:58:09.413Z,23.15
2022-08-17T15:00:37.885Z,23.18
2022-08-17T15:03:05.980Z,23.15
2022-08-17T15:05:37.033Z,22.99
2022-08-17T15:08:05.793Z,22.95
2022-08-17T15:10:33.060Z,22.88
2022-08-17T15:13:00.644Z,22.73
2022-08-17T15:15:28.828Z,22.77
2022-08-17T15:17:56.790Z,22.82
2022-08-17T15:20:28.129Z,22.81
2022-08-17T15:22:57.595Z,23.00
2022-08-17T15:25:32.037Z,23.13
2022-08-17T15:27:59.973Z,22.93
2022-08-17T15:30:27.881Z,22.84
2022-08-17T15:32:56.717Z,22.78
2022-08-17T15:35:29.113Z,22.84
2022-08-17T15:38:08.053Z,22.94
2022-08-17T15:40:40.630Z,22.85
2022-08-17T15:43:14.570Z,22.70
2022-08-17T15:45:41.932Z,22.64
2022-08-17T15:48:09.632Z,22.53
2022-08-17T15:50:36.908Z,22.53
2022-08-17T15:53:05.095Z,22.52
2022-08-17T15:55:33.256Z,22.51
2022-08-17T15:58:00.704Z,22.60
2022-08-17T16:00:29.561Z,22.56
2022-08-17T16:03:13.529Z,22.53
2022-08-17T16:05:47.979Z,22.51
2022-08-17T16:08:20.658Z,22.51
2022-08-17T16:10:50.100Z,22.70
2022-08-17T16:13:18.872Z,22.76
2022-08-17T16:15:56.226Z,22.78
2022-08-17T16:18:31.895Z,22.81
2022-08-17T16:21:23.441Z,22.84
2022-08-17T16:23:53.656Z,22.79
2022-08-17T16:26:23.015Z,22.85
2022-08-17T16:28:51.399Z,22.87
2022-08-17T16:31:18.526Z,22.95
2022-08-17T16:34:16.369Z,22.95
2022-08-17T16:36:32.716Z,23.03
2022-08-17T16:39:00.679Z,23.13
2022-08-17T16:41:45.189Z,23.08
2022-08-17T16:44:17.528Z,22.90
2022-08-17T16:46:46.167Z,22.76
2022-08-17T16:49:36.134Z,22.71
2022-08-17T16:52:03.426Z,22.67
2022-08-17T16:54:30.360Z,22.60
2022-08-17T16:56:57.276Z,22.42
2022-08-17T16:59:31.020Z,22.31
2022-08-17T17:02:11.417Z,22.27
2022-08-17T17:04:50.945Z,22.21
2022-08-17T17:07:51.451Z,22.04
2022-08-17T17:10:46.759Z,22.04
2022-08-17T17:13:30.655Z,21.98
2022-08-17T17:16:14.659Z,21.84
2022-08-17T17:18:51.534Z,21.72
2022-08-17T17:21:23.190Z,21.67
2022-08-17T17:23:56.452Z,21.67
2022-08-17T17:27:00.589Z,21.60
2022-08-17T17:29:47.456Z,21.51
2022-08-17T17:32:52.776Z,21.45
2022-08-17T17:35:20.917Z,21.44
2022-08-17T17:37:48.687Z,21.46
2022-08-17T17:40:37.945Z,21.42
2022-08-17T17:43:34.869Z,21.34
2022-08-17T17:45:56.994Z,21.29
2022-08-17T17:48:28.989Z,21.30
2022-08-17T17:52:06.806Z,21.20
2022-08-17T17:54:48.025Z,21.16
2022-08-17T17:57:36.810Z,21.16
2022-08-17T18:00:13.011Z,21.19
2022-08-17T18:03:03.404Z,21.23
2022-08-17T18:05:49.057Z,21.23
2022-08-17T18:08:32.078Z,21.23
2022-08-17T18:11:13.118Z,21.25
2022-08-17T18:14:16.407Z,21.24
2022-08-17T18:16:44.998Z,21.22
2022-08-17T18:19:20.542Z,21.20
2022-08-17T18:21:53.064Z,21.20
2022-08-17T18:24:34.737Z,21.22
2022-08-17T18:27:08.389Z,21.22
2022-08-17T18:29:44.263Z,21.19
2022-08-17T18:32:28.526Z,21.18
2022-08-17T18:35:18.469Z,21.16
2022-08-17T18:38:17.983Z,21.13
2022-08-17T18:40:48.247Z,21.04
2022-08-17T18:43:53.475Z,20.96
2022-08-17T18:46:35.382Z,20.97
2022-08-17T18:49:24.420Z,20.96
2022-08-17T18:52:17.725Z,20.91
2022-08-17T18:55:25.075Z,20.73
2022-08-17T18:57:55.696Z,20.57
2022-08-17T19:00:43.781Z,20.29
2022-08-17T19:03:16.812Z,20.21
2022-08-17T19:05:48.674Z,20.17
2022-08-17T19:08:22.610Z,20.14
2022-08-17T19:11:17.020Z,20.18
2022-08-17T19:13:52.074Z,20.20
2022-08-17T19:16:25.757Z,20.16
2022-08-17T19:19:02.200Z,20.17
2022-08-17T19:21:37.485Z,20.19
2022-08-17T19:24:19.918Z,20.24
2022-08-17T19:26:56.677Z,20.28
2022-08-17T19:29:50.845Z,20.25
2022-08-17T19:32:25.521Z,20.19
2022-08-17T19:34:53.365Z,20.16
2022-08-17T19:37:45.002Z,20.16
2022-08-17T19:40:51.710Z,20.16
2022-08-17T19:43:39.979Z,20.10
2022-08-17T19:46:15.880Z,20.06
2022-08-17T19:48:51.873Z,20.08
2022-08-17T19:51:24.513Z,20.11
2022-08-17T19:54:06.339Z,20.08
2022-08-17T19:56:39.746Z,20.10
2022-08-17T19:59:49.082Z,20.09
2022-08-17T20:02:35.788Z,20.12
2022-08-17T20:05:11.406Z,20.14
2022-08-17T20:08:13.323Z,20.09
2022-08-17T20:10:55.062Z,20.06
2022-08-17T20:13:33.158Z,20.06
2022-08-17T20:16:01.879Z,20.08
2022-08-17T20:19:00.108Z,20.02
2022-08-17T20:21:34.640Z,20.04
2022-08-17T20:24:24.807Z,20.05
2022-08-17T20:26:58.382Z,20.06
2022-08-17T20:29:37.091Z,20.03
2022-08-17T20:32:14.946Z,19.98
2022-08-17T20:34:46.725Z,20.00
2022-08-17T20:37:14.264Z,20.00
2022-08-17T20:39:50.958Z,20.01
2022-08-17T20:42:21.329Z,20.01
2022-08-17T20:44:52.377Z,20.00
2022-08-17T20:47:27.323Z,19.98
2022-08-17T20:50:15.585Z,19.97
2022-08-17T20:52:42.853Z,19.94
2022-08-17T20:55:35.791Z,19.93
2022-08-17T20:58:24.852Z,19.92
2022-08-17T21:00:58.808Z,19.94
2022-08-17T21:03:39.954Z,19.92
2022-08-17T21:06:19.597Z,19.85
2022-08-17T21:08:54.415Z,19.92
2022-08-17T21:11:56.833Z,19.91
2022-08-17T21:14:45.032Z,19.92
2022-08-17T21:17:34.076Z,19.95
2022-08-17T21:20:27.250Z,19.93
2022-08-17T21:23:47.136Z,19.96
2022-08-17T21:26:30.663Z,19.92
2022-08-17T21:29:31.467Z,19.94
2022-08-17T21:32:00.602Z,19.96
2022-08-17T21:34:45.386Z,19.96
2022-08-17T21:37:26.347Z,20.01
2022-08-17T21:40:10.145Z,19.95
2022-08-17T21:42:48.946Z,19.94
2022-08-17T21:45:25.313Z,19.93
2022-08-17T21:48:14.259Z,19.92
2022-08-17T21:50:44.823Z,19.89
2022-08-17T21:53:23.024Z,19.85
2022-08-17T21:55:52.430Z,19.82
2022-08-17T21:58:31.571Z,19.76
2022-08-17T22:01:25.466Z,19.73
2022-08-17T22:04:00.410Z,19.69
2022-08-17T22:06:38.927Z,19.65
2022-08-17T22:09:14.165Z,19.62
2022-08-17T22:12:31.552Z,19.60
2022-08-17T22:15:06.114Z,19.61
2022-08-17T22:17:35.706Z,19.63
2022-08-17T22:20:19.287Z,19.66
2022-08-17T22:23:05.388Z,19.71
2022-08-17T22:25:36.089Z,19.77
2022-08-17T22:28:06.237Z,19.83
2022-08-17T22:30:40.696Z,19.92
2022-08-17T22:33:29.189Z,19.96
2022-08-17T22:36:32.742Z,20.00
2022-08-17T22:39:23.070Z,20.03
2022-08-17T22:41:56.506Z,20.10
2022-08-17T22:44:31.828Z,20.15
2022-08-17T22:47:26.863Z,20.17
2022-08-17T22:50:00.243Z,20.19
2022-08-17T22:53:01.885Z,20.26
2022-08-17T22:55:52.642Z,20.25
2022-08-17T22:58:42.619Z,20.29
2022-08-17T23:01:36.403Z,20.33
2022-08-17T23:04:09.754Z,20.33
2022-08-17T23:06:43.914Z,20.38
2022-08-17T23:09:12.397Z,20.40
2022-08-17T23:11:52.525Z,20.42
2022-08-17T23:14:30.268Z,20.41
2022-08-17T23:17:01.149Z,20.41
2022-08-17T23:19:31.826Z,20.39
2022-08-17T23:22:08.176Z,20.42
2022-08-17T23:24:47.005Z,20.41
2022-08-17T23:27:14.083Z,20.39
2022-08-17T23:29:42.107Z,20.37
2022-08-17T23:32:14.387Z,20.39
2022-08-17T23:34:43.083Z,20.46
2022-08-17T23:37:11.686Z,20.41
2022-08-17T23:39:39.562Z,20.40
2022-08-17T23:42:08.768Z,20.40
2022-08-17T23:44:38.256Z,20.40
2022-08-17T23:47:05.802Z,20.39
2022-08-17T23:49:33.097Z,20.42
2022-08-17T23:52:01.955Z,20.46
2022-08-17T23:54:35.228Z,20.45
2022-08-17T23:57:04.849Z,20.44
2022-08-17T23:59:34.029Z,20.45
